sensor_id;sensor_type;location;lat;lon;timestamp;P1;durP1;ratioP1;P2;durP2;ratioP2
1106;SDS011;540;49.448;8.612;2022-12-07T15:53:48;8.45;;;4.72;;
1106;SDS011;540;49.448;8.612;2022-12-07T15:56:16;11.93;;;6.93;;
1106;SDS011;540;49.448;8.612;2022-12-07T15:58:44;17.02;;;8.05;;
1106;SDS011;540;49.448;8.612;2022-12-07T16:01:12;15.68;;;6.85;;
1106;SDS011;540;49.448;8.612;2022-12-07T16:03:40;15.40;;;6.90;;
1106;SDS011;540;49.448;8.612;2022-12-07T16:06:08;13.82;;;6.45;;
1106;SDS011;540;49.448;8.612;2022-12-07T16:08:36;11.15;;;5.75;;
1106;SDS011;540;49.448;8.612;2022-12-07T16:11:10;13.68;;;6.47;;
1106;SDS011;540;49.448;8.612;2022-12-07T16:13:38;15.77;;;6.47;;
1106;SDS011;540;49.448;8.612;2022-12-07T16:16:07;11.15;;;5.38;;
1106;SDS011;540;49.448;8.612;2022-12-07T16:18:36;13.77;;;6.18;;
1106;SDS011;540;49.448;8.612;2022-12-07T16:21:04;11.50;;;6.38;;
1106;SDS011;540;49.448;8.612;2022-12-07T16:23:33;15.88;;;6.25;;
1106;SDS011;540;49.448;8.612;2022-12-07T16:26:04;13.02;;;6.25;;
1106;SDS011;540;49.448;8.612;2022-12-07T16:28:34;11.43;;;5.80;;
1106;SDS011;540;49.448;8.612;2022-12-07T16:31:03;14.68;;;7.50;;
1106;SDS011;540;49.448;8.612;2022-12-07T16:33:33;13.23;;;5.63;;
1106;SDS011;540;49.448;8.612;2022-12-07T16:36:02;9.65;;;4.93;;
1106;SDS011;540;49.448;8.612;2022-12-07T16:38:31;9.98;;;4.38;;
1106;SDS011;540;49.448;8.612;2022-12-07T16:40:59;10.73;;;5.57;;
1106;SDS011;540;49.448;8.612;2022-12-07T16:43:26;11.80;;;5.45;;
1106;SDS011;540;49.448;8.612;2022-12-07T16:45:55;13.65;;;6.63;;
1106;SDS011;540;49.448;8.612;2022-12-07T16:48:23;16.10;;;6.47;;
1106;SDS011;540;49.448;8.612;2022-12-07T16:50:51;15.43;;;6.10;;
1106;SDS011;540;49.448;8.612;2022-12-07T16:53:20;8.77;;;4.70;;
1106;SDS011;540;49.448;8.612;2022-12-07T16:55:48;8.80;;;4.43;;
1106;SDS011;540;49.448;8.612;2022-12-07T16:58:17;7.72;;;4.55;;
1106;SDS011;540;49.448;8.612;2022-12-07T17:00:45;9.93;;;5.03;;
1106;SDS011;540;49.448;8.612;2022-12-07T17:03:14;11.57;;;6.10;;
1106;SDS011;540;49.448;8.612;2022-12-07T17:05:46;7.47;;;4.50;;
1106;SDS011;540;49.448;8.612;2022-12-07T17:08:15;6.25;;;3.85;;
1106;SDS011;540;49.448;8.612;2022-12-07T17:10:43;9.20;;;5.25;;
1106;SDS011;540;49.448;8.612;2022-12-07T17:13:12;10.57;;;6.03;;
1106;SDS011;540;49.448;8.612;2022-12-07T17:15:58;10.77;;;5.72;;
1106;SDS011;540;49.448;8.612;2022-12-07T17:18:28;10.40;;;5.07;;
1106;SDS011;540;49.448;8.612;2022-12-07T17:21:01;10.73;;;5.32;;
1106;SDS011;540;49.448;8.612;2022-12-07T17:23:31;10.45;;;5.03;;
1106;SDS011;540;49.448;8.612;2022-12-07T17:26:06;8.63;;;5.28;;
1106;SDS011;540;49.448;8.612;2022-12-07T17:28:35;10.63;;;5.30;;
1106;SDS011;540;49.448;8.612;2022-12-07T17:31:04;13.05;;;6.18;;
1106;SDS011;540;49.448;8.612;2022-12-07T17:33:35;11.32;;;6.05;;
1106;SDS011;540;49.448;8.612;2022-12-07T17:36:09;10.52;;;6.25;;
1106;SDS011;540;49.448;8.612;2022-12-07T17:38:37;12.93;;;5.95;;
1106;SDS011;540;49.448;8.612;2022-12-07T17:41:09;12.50;;;6.47;;
1106;SDS011;540;49.448;8.612;2022-12-07T17:43:38;12.90;;;7.00;;
1106;SDS011;540;49.448;8.612;2022-12-07T17:46:07;15.00;;;6.82;;
1106;SDS011;540;49.448;8.612;2022-12-07T17:48:36;14.85;;;7.60;;
1106;SDS011;540;49.448;8.612;2022-12-07T17:51:04;15.20;;;8.75;;
1106;SDS011;540;49.448;8.612;2022-12-07T17:53:50;14.23;;;6.80;;
1106;SDS011;540;49.448;8.612;2022-12-07T17:56:17;13.38;;;7.70;;
1106;SDS011;540;49.448;8.612;2022-12-07T17:58:54;13.48;;;7.80;;
1106;SDS011;540;49.448;8.612;2022-12-07T18:01:22;19.90;;;8.10;;
1106;SDS011;540;49.448;8.612;2022-12-07T18:03:55;16.88;;;9.10;;
1106;SDS011;540;49.448;8.612;2022-12-07T18:06:22;16.20;;;8.45;;
1106;SDS011;540;49.448;8.612;2022-12-07T18:08:50;16.17;;;9.63;;
1106;SDS011;540;49.448;8.612;2022-12-07T18:11:18;17.17;;;8.95;;
1106;SDS011;540;49.448;8.612;2022-12-07T18:13:46;14.50;;;8.80;;
1106;SDS011;540;49.448;8.612;2022-12-07T18:16:15;16.83;;;9.65;;
1106;SDS011;540;49.448;8.612;2022-12-07T18:18:46;16.65;;;8.40;;
1106;SDS011;540;49.448;8.612;2022-12-07T18:21:20;17.13;;;9.63;;
1106;SDS011;540;49.448;8.612;2022-12-07T18:23:50;17.90;;;8.88;;
1106;SDS011;540;49.448;8.612;2022-12-07T18:26:19;14.77;;;8.63;;
1106;SDS011;540;49.448;8.612;2022-12-07T18:28:48;14.82;;;8.43;;
1106;SDS011;540;49.448;8.612;2022-12-07T18:31:16;28.52;;;10.95;;
1106;SDS011;540;49.448;8.612;2022-12-07T18:33:45;20.65;;;10.02;;
1106;SDS011;540;49.448;8.612;2022-12-07T18:36:15;22.52;;;10.73;;
1106;SDS011;540;49.448;8.612;2022-12-07T18:38:44;22.85;;;11.10;;
1106;SDS011;540;49.448;8.612;2022-12-07T18:41:13;21.65;;;10.40;;
1106;SDS011;540;49.448;8.612;2022-12-07T18:43:41;20.67;;;9.38;;
1106;SDS011;540;49.448;8.612;2022-12-07T18:46:09;18.10;;;9.05;;
1106;SDS011;540;49.448;8.612;2022-12-07T18:48:38;16.75;;;8.88;;
1106;SDS011;540;49.448;8.612;2022-12-07T18:51:06;18.88;;;9.82;;
1106;SDS011;540;49.448;8.612;2022-12-07T18:53:35;21.25;;;9.68;;
1106;SDS011;540;49.448;8.612;2022-12-07T18:56:05;20.83;;;10.23;;
1106;SDS011;540;49.448;8.612;2022-12-07T18:58:34;18.75;;;9.10;;
1106;SDS011;540;49.448;8.612;2022-12-07T19:01:02;19.85;;;10.18;;
1106;SDS011;540;49.448;8.612;2022-12-07T19:03:30;23.65;;;10.77;;
1106;SDS011;540;49.448;8.612;2022-12-07T19:06:03;18.90;;;9.90;;
1106;SDS011;540;49.448;8.612;2022-12-07T19:08:32;16.95;;;9.68;;
1106;SDS011;540;49.448;8.612;2022-12-07T19:11:01;20.00;;;8.27;;
1106;SDS011;540;49.448;8.612;2022-12-07T19:13:51;21.52;;;10.10;;
1106;SDS011;540;49.448;8.612;2022-12-07T19:16:18;21.35;;;9.82;;
1106;SDS011;540;49.448;8.612;2022-12-07T19:18:46;20.30;;;9.45;;
1106;SDS011;540;49.448;8.612;2022-12-07T19:21:17;17.67;;;9.40;;
1106;SDS011;540;49.448;8.612;2022-12-07T19:23:45;23.65;;;10.35;;
1106;SDS011;540;49.448;8.612;2022-12-07T19:26:13;19.05;;;9.35;;
1106;SDS011;540;49.448;8.612;2022-12-07T19:28:40;19.85;;;10.15;;
1106;SDS011;540;49.448;8.612;2022-12-07T19:31:10;21.40;;;10.13;;
1106;SDS011;540;49.448;8.612;2022-12-07T19:33:38;20.55;;;9.65;;
1106;SDS011;540;49.448;8.612;2022-12-07T19:36:06;19.25;;;10.00;;
1106;SDS011;540;49.448;8.612;2022-12-07T19:38:34;18.85;;;9.32;;
1106;SDS011;540;49.448;8.612;2022-12-07T19:41:03;25.05;;;11.38;;
1106;SDS011;540;49.448;8.612;2022-12-07T19:43:31;21.40;;;10.90;;
1106;SDS011;540;49.448;8.612;2022-12-07T19:46:02;22.63;;;10.70;;
1106;SDS011;540;49.448;8.612;2022-12-07T19:48:32;22.77;;;11.13;;
1106;SDS011;540;49.448;8.612;2022-12-07T19:51:01;23.55;;;11.57;;
1106;SDS011;540;49.448;8.612;2022-12-07T19:53:31;19.65;;;9.75;;
1106;SDS011;540;49.448;8.612;2022-12-07T19:55:59;20.70;;;10.38;;
1106;SDS011;540;49.448;8.612;2022-12-07T19:58:27;22.40;;;10.82;;
1106;SDS011;540;49.448;8.612;2022-12-07T20:00:54;22.90;;;10.45;;
1106;SDS011;540;49.448;8.612;2022-12-07T20:03:28;22.77;;;11.13;;
1106;SDS011;540;49.448;8.612;2022-12-07T20:05:57;25.77;;;11.18;;
1106;SDS011;540;49.448;8.612;2022-12-07T20:08:25;23.38;;;9.93;;
1106;SDS011;540;49.448;8.612;2022-12-07T20:10:53;21.08;;;10.52;;
1106;SDS011;540;49.448;8.612;2022-12-07T20:13:24;24.30;;;11.02;;
1106;SDS011;540;49.448;8.612;2022-12-07T20:15:54;20.77;;;10.93;;
1106;SDS011;540;49.448;8.612;2022-12-07T20:18:41;21.55;;;10.93;;
1106;SDS011;540;49.448;8.612;2022-12-07T20:21:10;20.10;;;9.73;;
1106;SDS011;540;49.448;8.612;2022-12-07T20:23:39;27.98;;;11.38;;
1106;SDS011;540;49.448;8.612;2022-12-07T20:26:08;23.63;;;11.95;;
1106;SDS011;540;49.448;8.612;2022-12-07T20:28:37;20.15;;;11.15;;
1106;SDS011;540;49.448;8.612;2022-12-07T20:31:06;23.10;;;11.15;;
1106;SDS011;540;49.448;8.612;2022-12-07T20:33:34;20.83;;;10.27;;
1106;SDS011;540;49.448;8.612;2022-12-07T20:36:03;21.52;;;11.63;;
1106;SDS011;540;49.448;8.612;2022-12-07T20:38:33;19.80;;;9.98;;
1106;SDS011;540;49.448;8.612;2022-12-07T20:41:01;21.27;;;10.95;;
1106;SDS011;540;49.448;8.612;2022-12-07T20:43:30;20.92;;;10.38;;
1106;SDS011;540;49.448;8.612;2022-12-07T20:45:58;26.15;;;11.10;;
1106;SDS011;540;49.448;8.612;2022-12-07T20:48:26;21.25;;;11.18;;
1106;SDS011;540;49.448;8.612;2022-12-07T20:50:54;26.00;;;12.23;;
1106;SDS011;540;49.448;8.612;2022-12-07T20:53:33;22.90;;;11.80;;
1106;SDS011;540;49.448;8.612;2022-12-07T20:56:00;22.55;;;10.85;;
1106;SDS011;540;49.448;8.612;2022-12-07T20:58:28;22.73;;;11.68;;
1106;SDS011;540;49.448;8.612;2022-12-07T21:00:58;25.17;;;12.27;;
1106;SDS011;540;49.448;8.612;2022-12-07T21:03:26;24.08;;;12.20;;
